sensor_id;sensor_type;location;lat;lon;timestamp;temperature;humidity
64634;DHT22;51043;52.406;9.690;2024-02-26T00:00:07;1.20;99.90
64634;DHT22;51043;52.406;9.690;2024-02-26T00:02:37;1.10;99.90
64634;DHT22;51043;52.406;9.690;2024-02-26T00:05:07;1.10;99.90
64634;DHT22;51043;52.406;9.690;2024-02-26T00:07:36;1.10;99.90
64634;DHT22;51043;52.406;9.690;2024-02-26T00:10:09;1.00;99.90
64634;DHT22;51043;52.406;9.690;2024-02-26T00:12:37;1.00;99.90
64634;DHT22;51043;52.406;9.690;2024-02-26T00:15:08;1.20;99.90
64634;DHT22;51043;52.406;9.690;2024-02-26T00:17:37;1.30;99.90
64634;DHT22;51043;52.406;9.690;2024-02-26T00:20:07;1.30;99.90
64634;DHT22;51043;52.406;9.690;2024-02-26T00:22:36;1.30;99.90
64634;DHT22;51043;52.406;9.690;2024-02-26T00:25:05;1.20;99.90
64634;DHT22;51043;52.406;9.690;2024-02-26T00:27:35;1.20;99.90
64634;DHT22;51043;52.406;9.690;2024-02-26T00:30:05;1.20;99.90
64634;DHT22;51043;52.406;9.690;2024-02-26T00:32:33;1.20;99.90
64634;DHT22;51043;52.406;9.690;2024-02-26T00:35:01;1.10;99.90
64634;DHT22;51043;52.406;9.690;2024-02-26T00:37:30;1.10;99.90
64634;DHT22;51043;52.406;9.690;2024-02-26T00:39:58;1.10;99.90
64634;DHT22;51043;52.406;9.690;2024-02-26T00:42:26;1.10;99.90
64634;DHT22;51043;52.406;9.690;2024-02-26T00:44:56;1.10;99.90
64634;DHT22;51043;52.406;9.690;2024-02-26T00:47:26;1.00;99.90
64634;DHT22;51043;52.406;9.690;2024-02-26T00:49:54;1.00;99.90
64634;DHT22;51043;52.406;9.690;2024-02-26T00:52:22;0.90;99.90
64634;DHT22;51043;52.406;9.690;2024-02-26T00:54:50;1.00;99.90
64634;DHT22;51043;52.406;9.690;2024-02-26T00:57:18;1.10;99.90
64634;DHT22;51043;52.406;9.690;2024-02-26T00:59:47;1.10;99.90
64634;DHT22;51043;52.406;9.690;2024-02-26T01:02:18;1.20;99.90
64634;DHT22;51043;52.406;9.690;2024-02-26T01:04:47;1.20;99.90
64634;DHT22;51043;52.406;9.690;2024-02-26T01:07:15;1.20;99.90
64634;DHT22;51043;52.406;9.690;2024-02-26T01:09:43;1.20;99.90
64634;DHT22;51043;52.406;9.690;2024-02-26T01:12:11;1.10;99.90
64634;DHT22;51043;52.406;9.690;2024-02-26T01:14:40;1.10;99.90
64634;DHT22;51043;52.406;9.690;2024-02-26T01:17:09;1.10;99.90
64634;DHT22;51043;52.406;9.690;2024-02-26T01:19:39;1.10;99.90
64634;DHT22;51043;52.406;9.690;2024-02-26T01:22:10;1.20;99.90
64634;DHT22;51043;52.406;9.690;2024-02-26T01:24:38;1.30;99.90
64634;DHT22;51043;52.406;9.690;2024-02-26T01:27:10;1.40;99.90
64634;DHT22;51043;52.406;9.690;2024-02-26T01:29:42;1.40;99.90
64634;DHT22;51043;52.406;9.690;2024-02-26T01:32:11;1.50;99.90
64634;DHT22;51043;52.406;9.690;2024-02-26T01:34:42;1.60;99.90
64634;DHT22;51043;52.406;9.690;2024-02-26T01:37:10;1.70;99.90
64634;DHT22;51043;52.406;9.690;2024-02-26T01:39:38;1.70;99.90
64634;DHT22;51043;52.406;9.690;2024-02-26T01:42:10;1.70;99.90
64634;DHT22;51043;52.406;9.690;2024-02-26T01:44:38;1.70;99.90
64634;DHT22;51043;52.406;9.690;2024-02-26T01:47:08;1.70;99.90
64634;DHT22;51043;52.406;9.690;2024-02-26T01:49:40;1.70;99.90
64634;DHT22;51043;52.406;9.690;2024-02-26T01:52:09;1.70;99.90
64634;DHT22;51043;52.406;9.690;2024-02-26T01:54:38;1.70;99.90
64634;DHT22;51043;52.406;9.690;2024-02-26T01:57:08;1.70;99.90
64634;DHT22;51043;52.406;9.690;2024-02-26T01:59:37;1.60;99.90
64634;DHT22;51043;52.406;9.690;2024-02-26T02:02:08;1.60;99.90
64634;DHT22;51043;52.406;9.690;2024-02-26T02:04:38;1.60;99.90
64634;DHT22;51043;52.406;9.690;2024-02-26T02:07:09;1.70;99.90
64634;DHT22;51043;52.406;9.690;2024-02-26T02:09:37;1.70;99.90
64634;DHT22;51043;52.406;9.690;2024-02-26T02:12:08;1.70;99.90
64634;DHT22;51043;52.406;9.690;2024-02-26T02:14:37;1.70;99.90
64634;DHT22;51043;52.406;9.690;2024-02-26T02:17:07;1.60;99.90
64634;DHT22;51043;52.406;9.690;2024-02-26T02:19:35;1.60;99.90
64634;DHT22;51043;52.406;9.690;2024-02-26T02:22:04;1.50;99.90
64634;DHT22;51043;52.406;9.690;2024-02-26T02:24:33;1.50;99.90
64634;DHT22;51043;52.406;9.690;2024-02-26T02:27:01;1.50;99.90
64634;DHT22;51043;52.406;9.690;2024-02-26T02:29:30;1.40;99.90
64634;DHT22;51043;52.406;9.690;2024-02-26T02:31:59;1.40;99.90
64634;DHT22;51043;52.406;9.690;2024-02-26T02:34:27;1.40;99.90
64634;DHT22;51043;52.406;9.690;2024-02-26T02:36:57;1.40;99.90
64634;DHT22;51043;52.406;9.690;2024-02-26T02:39:27;1.30;99.90
64634;DHT22;51043;52.406;9.690;2024-02-26T02:41:56;1.30;99.90
64634;DHT22;51043;52.406;9.690;2024-02-26T02:44:24;1.30;99.90
64634;DHT22;51043;52.406;9.690;2024-02-26T02:46:52;1.30;99.90
64634;DHT22;51043;52.406;9.690;2024-02-26T02:49:20;1.40;99.90
64634;DHT22;51043;52.406;9.690;2024-02-26T02:51:50;1.50;99.90
64634;DHT22;51043;52.406;9.690;2024-02-26T02:54:20;1.50;99.90
64634;DHT22;51043;52.406;9.690;2024-02-26T02:56:49;1.50;99.90
64634;DHT22;51043;52.406;9.690;2024-02-26T02:59:18;1.40;99.90
64634;DHT22;51043;52.406;9.690;2024-02-26T03:01:46;1.40;99.90
64634;DHT22;51043;52.406;9.690;2024-02-26T03:04:14;1.30;99.90
64634;DHT22;51043;52.406;9.690;2024-02-26T03:06:43;1.20;99.90
64634;DHT22;51043;52.406;9.690;2024-02-26T03:09:11;1.20;99.90
64634;DHT22;51043;52.406;9.690;2024-02-26T03:11:41;1.20;99.90
64634;DHT22;51043;52.406;9.690;2024-02-26T03:14:12;1.20;99.90
64634;DHT22;51043;52.406;9.690;2024-02-26T03:16:41;1.20;99.90
64634;DHT22;51043;52.406;9.690;2024-02-26T03:19:11;1.20;99.90
64634;DHT22;51043;52.406;9.690;2024-02-26T03:21:42;1.10;99.90
64634;DHT22;51043;52.406;9.690;2024-02-26T03:24:13;1.10;99.90
64634;DHT22;51043;52.406;9.690;2024-02-26T03:26:42;1.00;99.90
64634;DHT22;51043;52.406;9.690;2024-02-26T03:29:12;1.00;99.90
64634;DHT22;51043;52.406;9.690;2024-02-26T03:31:41;0.90;99.90
64634;DHT22;51043;52.406;9.690;2024-02-26T03:34:12;1.00;99.90
64634;DHT22;51043;52.406;9.690;2024-02-26T03:36:42;1.00;99.90
64634;DHT22;51043;52.406;9.690;2024-02-26T03:39:12;1.00;99.90
64634;DHT22;51043;52.406;9.690;2024-02-26T03:41:45;1.00;99.90
64634;DHT22;51043;52.406;9.690;2024-02-26T03:44:15;1.00;99.90
64634;DHT22;51043;52.406;9.690;2024-02-26T03:46:44;1.00;99.90
64634;DHT22;51043;52.406;9.690;2024-02-26T03:49:12;1.10;99.90
64634;DHT22;51043;52.406;9.690;2024-02-26T03:51:41;1.00;99.90
64634;DHT22;51043;52.406;9.690;2024-02-26T03:54:12;1.00;99.90
64634;DHT22;51043;52.406;9.690;2024-02-26T03:56:41;1.10;99.90
64634;DHT22;51043;52.406;9.690;2024-02-26T03:59:10;1.10;99.90
64634;DHT22;51043;52.406;9.690;2024-02-26T04:01:45;1.10;99.90
64634;DHT22;51043;52.406;9.690;2024-02-26T04:04:13;1.20;99.90
64634;DHT22;51043;52.406;9.690;2024-02-26T04:06:44;1.20;99.90
64634;DHT22;51043;52.406;9.690;2024-02-26T04:09:14;1.30;99.90
64634;DHT22;51043;52.406;9.690;2024-02-26T04:11:42;1.30;99.90
64634;DHT22;51043;52.406;9.690;2024-02-26T04:14:11;1.30;99.90
64634;DHT22;51043;52.406;9.690;2024-02-26T04:16:43;1.40;99.90
64634;DHT22;51043;52.406;9.690;2024-02-26T04:19:12;1.40;99.90
64634;DHT22;51043;52.406;9.690;2024-02-26T04:21:44;1.50;99.90
64634;DHT22;51043;52.406;9.690;2024-02-26T04:24:12;1.50;99.90
64634;DHT22;51043;52.406;9.690;2024-02-26T04:26:40;1.60;99.90
64634;DHT22;51043;52.406;9.690;2024-02-26T04:29:11;1.60;99.90
64634;DHT22;51043;52.406;9.690;2024-02-26T04:31:41;1.70;99.90
64634;DHT22;51043;52.406;9.690;2024-02-26T04:34:10;1.70;99.90
64634;DHT22;51043;52.406;9.690;2024-02-26T04:36:39;1.70;99.90
64634;DHT22;51043;52.406;9.690;2024-02-26T04:39:08;1.70;99.90
64634;DHT22;51043;52.406;9.690;2024-02-26T04:41:36;1.70;99.90
64634;DHT22;51043;52.406;9.690;2024-02-26T04:44:06;1.70;99.90
64634;DHT22;51043;52.406;9.690;2024-02-26T04:46:35;1.70;99.90
64634;DHT22;51043;52.406;9.690;2024-02-26T04:49:05;1.70;99.90
64634;DHT22;51043;52.406;9.690;2024-02-26T04:51:34;1.70;99.90
64634;DHT22;51043;52.406;9.690;2024-02-26T04:54:03;1.80;99.90
64634;DHT22;51043;52.406;9.690;2024-02-26T04:56:31;1.60;99.90
64634;DHT22;51043;52.406;9.690;2024-02-26T04:59:00;1.70;99.90
64634;DHT22;51043;52.406;9.690;2024-02-26T05:01:29;1.70;99.90
64634;DHT22;51043;52.406;9.690;2024-02-26T05:03:58;1.70;99.90
64634;DHT22;51043;52.406;9.690;2024-02-26T05:06:27;1.80;99.90
64634;DHT22;51043;52.406;9.690;2024-02-26T05:08:55;1.80;99.90
64634;DHT22;51043;52.406;9.690;2024-02-26T05:11:23;1.90;99.90
64634;DHT22;51043;52.406;9.690;2024-02-26T05:13:51;1.90;99.90
64634;DHT22;51043;52.406;9.690;2024-02-26T05:16:19;2.00;99.90
64634;DHT22;51043;52.406;9.690;2024-02-26T05:18:51;2.00;99.90
64634;DHT22;51043;52.406;9.690;2024-02-26T05:21:19;2.00;99.90
64634;DHT22;51043;52.406;9.690;2024-02-26T05:23:48;2.00;99.90
64634;DHT22;51043;52.406;9.690;2024-02-26T05:26:19;2.00;99.90
64634;DHT22;51043;52.406;9.690;2024-02-26T05:28:48;1.90;99.90
64634;DHT22;51043;52.406;9.690;2024-02-26T05:31:17;1.90;99.90
64634;DHT22;51043;52.406;9.690;2024-02-26T05:33:48;1.90;99.90
64634;DHT22;51043;52.406;9.690;2024-02-26T05:36:20;1.90;99.90
64634;DHT22;51043;52.406;9.690;2024-02-26T05:38:51;1.90;99.90
64634;DHT22;51043;52.406;9.690;2024-02-26T05:41:19;2.00;99.90
64634;DHT22;51043;52.406;9.690;2024-02-26T05:43:51;2.00;99.90
64634;DHT22;51043;52.406;9.690;2024-02-26T05:46:20;2.10;99.90
64634;DHT22;51043;52.406;9.690;2024-02-26T05:48:51;2.10;99.90
64634;DHT22;51043;52.406;9.690;2024-02-26T05:51:20;2.10;99.90
64634;DHT22;51043;52.406;9.690;2024-02-26T05:53:50;2.10;99.90
64634;DHT22;51043;52.406;9.690;2024-02-26T05:56:22;2.10;99.90
64634;DHT22;51043;52.406;9.690;2024-02-26T05:58:51;2.10;99.90
64634;DHT22;51043;52.406;9.690;2024-02-26T06:01:21;2.10;99.90
64634;DHT22;51043;52.406;9.690;2024-02-26T06:03:49;2.20;99.90
64634;DHT22;51043;52.406;9.690;2024-02-26T06:06:17;2.10;99.90
64634;DHT22;51043;52.406;9.690;2024-02-26T06:08:46;2.10;99.90
64634;DHT22;51043;52.406;9.690;2024-02-26T06:11:15;2.10;99.90
64634;DHT22;51043;52.406;9.690;2024-02-26T06:13:46;2.10;99.90
64634;DHT22;51043;52.406;9.690;2024-02-26T06:16:14;2.10;99.90
64634;DHT22;51043;52.406;9.690;2024-02-26T06:18:42;2.10;99.90
64634;DHT22;51043;52.406;9.690;2024-02-26T06:21:11;2.00;99.90
64634;DHT22;51043;52.406;9.690;2024-02-26T06:23:39;2.00;99.90
64634;DHT22;51043;52.406;9.690;2024-02-26T06:26:08;2.10;99.90
64634;DHT22;51043;52.406;9.690;2024-02-26T06:28:38;2.10;99.90
64634;DHT22;51043;52.406;9.690;2024-02-26T06:31:07;2.20;99.90
64634;DHT22;51043;52.406;9.690;2024-02-26T06:33:35;2.20;99.90
64634;DHT22;51043;52.406;9.690;2024-02-26T06:36:04;2.30;99.90
64634;DHT22;51043;52.406;9.690;2024-02-26T06:38:34;2.30;99.90
64634;DHT22;51043;52.406;9.690;2024-02-26T06:41:03;2.40;99.90
64634;DHT22;51043;52.406;9.690;2024-02-26T06:43:31;2.40;99.90
64634;DHT22;51043;52.406;9.690;2024-02-26T06:46:01;2.50;99.90
64634;DHT22;51043;52.406;9.690;2024-02-26T06:48:29;2.50;99.90
64634;DHT22;51043;52.406;9.690;2024-02-26T06:50:57;2.50;99.90
64634;DHT22;51043;52.406;9.690;2024-02-26T06:53:25;2.50;99.90
64634;DHT22;51043;52.406;9.690;2024-02-26T06:55:54;2.60;99.90
64634;DHT22;51043;52.406;9.690;2024-02-26T06:58:22;2.60;99.90
64634;DHT22;51043;52.406;9.690;2024-02-26T07:00:51;2.70;99.90
64634;DHT22;51043;52.406;9.690;2024-02-26T07:03:21;2.70;99.90
64634;DHT22;51043;52.406;9.690;2024-02-26T07:05:51;2.80;99.90
64634;DHT22;51043;52.406;9.690;2024-02-26T07:08:21;2.80;99.90
64634;DHT22;51043;52.406;9.690;2024-02-26T07:10:50;2.90;99.90
64634;DHT22;51043;52.406;9.690;2024-02-26T07:13:18;2.90;99.90
64634;DHT22;51043;52.406;9.690;2024-02-26T07:15:47;3.00;99.90
64634;DHT22;51043;52.406;9.690;2024-02-26T07:18:16;3.10;99.90
64634;DHT22;51043;52.406;9.690;2024-02-26T07:20:49;3.10;99.90
64634;DHT22;51043;52.406;9.690;2024-02-26T07:23:17;3.20;99.90
64634;DHT22;51043;52.406;9.690;2024-02-26T07:25:45;3.20;99.90
64634;DHT22;51043;52.406;9.690;2024-02-26T07:28:16;3.30;99.90
64634;DHT22;51043;52.406;9.690;2024-02-26T07:30:53;3.40;99.90
64634;DHT22;51043;52.406;9.690;2024-02-26T07:33:22;3.40;99.90
64634;DHT22;51043;52.406;9.690;2024-02-26T07:35:51;3.50;99.90
64634;DHT22;51043;52.406;9.690;2024-02-26T07:38:20;3.50;99.90
64634;DHT22;51043;52.406;9.690;2024-02-26T07:40:53;3.60;99.90
64634;DHT22;51043;52.406;9.690;2024-02-26T07:43:27;3.70;99.90
64634;DHT22;51043;52.406;9.690;2024-02-26T07:45:56;3.70;99.90
64634;DHT22;51043;52.406;9.690;2024-02-26T07:48:28;3.70;99.90
64634;DHT22;51043;52.406;9.690;2024-02-26T07:50:59;3.80;99.90
64634;DHT22;51043;52.406;9.690;2024-02-26T07:53:31;3.90;99.90
64634;DHT22;51043;52.406;9.690;2024-02-26T07:55:59;3.90;99.90
64634;DHT22;51043;52.406;9.690;2024-02-26T07:58:27;4.00;99.90
64634;DHT22;51043;52.406;9.690;2024-02-26T08:00:54;4.10;99.90
64634;DHT22;51043;52.406;9.690;2024-02-26T08:03:22;4.10;99.90
64634;DHT22;51043;52.406;9.690;2024-02-26T08:05:54;4.10;99.90
64634;DHT22;51043;52.406;9.690;2024-02-26T08:08:26;4.20;99.90
64634;DHT22;51043;52.406;9.690;2024-02-26T08:10:54;4.30;99.90
64634;DHT22;51043;52.406;9.690;2024-02-26T08:13:22;4.30;99.90
64634;DHT22;51043;52.406;9.690;2024-02-26T08:15:50;4.40;99.90
64634;DHT22;51043;52.406;9.690;2024-02-26T08:18:19;4.40;99.90
64634;DHT22;51043;52.406;9.690;2024-02-26T08:20:48;4.50;99.90
64634;DHT22;51043;52.406;9.690;2024-02-26T08:23:17;4.60;99.90
64634;DHT22;51043;52.406;9.690;2024-02-26T08:25:48;4.60;99.90
64634;DHT22;51043;52.406;9.690;2024-02-26T08:28:17;4.70;99.90
64634;DHT22;51043;52.406;9.690;2024-02-26T08:30:51;4.80;99.90
64634;DHT22;51043;52.406;9.690;2024-02-26T08:33:21;4.90;99.90
64634;DHT22;51043;52.406;9.690;2024-02-26T08:35:51;4.90;99.90
64634;DHT22;51043;52.406;9.690;2024-02-26T08:38:20;4.90;99.90
64634;DHT22;51043;52.406;9.690;2024-02-26T08:40:50;5.00;99.90
64634;DHT22;51043;52.406;9.690;2024-02-26T08:43:21;5.10;99.90
64634;DHT22;51043;52.406;9.690;2024-02-26T08:45:53;5.20;99.90
64634;DHT22;51043;52.406;9.690;2024-02-26T08:48:21;5.30;99.90
64634;DHT22;51043;52.406;9.690;2024-02-26T08:50:49;5.40;99.90
64634;DHT22;51043;52.406;9.690;2024-02-26T08:53:18;5.50;99.90
64634;DHT22;51043;52.406;9.690;2024-02-26T08:55:51;5.60;99.90
64634;DHT22;51043;52.406;9.690;2024-02-26T08:58:20;5.60;99.90
64634;DHT22;51043;52.406;9.690;2024-02-26T09:00:48;5.60;99.90
64634;DHT22;51043;52.406;9.690;2024-02-26T09:03:16;5.70;99.90
64634;DHT22;51043;52.406;9.690;2024-02-26T09:05:45;5.80;99.90
64634;DHT22;51043;52.406;9.690;2024-02-26T09:08:13;5.80;99.90
64634;DHT22;51043;52.406;9.690;2024-02-26T09:10:42;5.90;99.90
64634;DHT22;51043;52.406;9.690;2024-02-26T09:13:11;6.00;99.90
64634;DHT22;51043;52.406;9.690;2024-02-26T09:15:39;6.00;99.90
64634;DHT22;51043;52.406;9.690;2024-02-26T09:18:08;6.10;99.90
64634;DHT22;51043;52.406;9.690;2024-02-26T09:20:36;6.10;99.90
64634;DHT22;51043;52.406;9.690;2024-02-26T09:23:04;6.10;99.90
64634;DHT22;51043;52.406;9.690;2024-02-26T09:25:32;6.00;99.90
64634;DHT22;51043;52.406;9.690;2024-02-26T09:28:01;6.10;99.90
64634;DHT22;51043;52.406;9.690;2024-02-26T09:30:31;6.20;99.90
64634;DHT22;51043;52.406;9.690;2024-02-26T09:32:59;6.20;99.90
64634;DHT22;51043;52.406;9.690;2024-02-26T09:35:27;6.30;99.90
64634;DHT22;51043;52.406;9.690;2024-02-26T09:37:56;6.30;99.90
64634;DHT22;51043;52.406;9.690;2024-02-26T09:40:25;6.30;99.90
64634;DHT22;51043;52.406;9.690;2024-02-26T09:42:59;6.30;99.90
64634;DHT22;51043;52.406;9.690;2024-02-26T09:45:28;6.30;99.90
64634;DHT22;51043;52.406;9.690;2024-02-26T09:48:02;6.40;99.90
64634;DHT22;51043;52.406;9.690;2024-02-26T09:50:34;6.30;99.90
64634;DHT22;51043;52.406;9.690;2024-02-26T09:53:04;6.30;99.90
64634;DHT22;51043;52.406;9.690;2024-02-26T09:55:34;6.30;99.90
64634;DHT22;51043;52.406;9.690;2024-02-26T09:58:04;6.40;99.90
64634;DHT22;51043;52.406;9.690;2024-02-26T10:00:38;6.40;99.90
64634;DHT22;51043;52.406;9.690;2024-02-26T10:03:13;6.50;99.90
64634;DHT22;51043;52.406;9.690;2024-02-26T10:05:43;6.50;99.90
64634;DHT22;51043;52.406;9.690;2024-02-26T10:08:12;6.50;99.90
64634;DHT22;51043;52.406;9.690;2024-02-26T10:10:42;6.60;99.90
64634;DHT22;51043;52.406;9.690;2024-02-26T10:13:10;6.70;99.90
64634;DHT22;51043;52.406;9.690;2024-02-26T10:15:39;6.70;99.90
64634;DHT22;51043;52.406;9.690;2024-02-26T10:18:08;6.70;99.90
64634;DHT22;51043;52.406;9.690;2024-02-26T10:20:37;6.80;99.90
64634;DHT22;51043;52.406;9.690;2024-02-26T10:23:05;6.90;99.90
64634;DHT22;51043;52.406;9.690;2024-02-26T10:25:34;7.00;99.90
64634;DHT22;51043;52.406;9.690;2024-02-26T10:28:02;7.20;99.90
64634;DHT22;51043;52.406;9.690;2024-02-26T10:30:30;7.30;99.90
64634;DHT22;51043;52.406;9.690;2024-02-26T10:32:59;7.30;99.90
64634;DHT22;51043;52.406;9.690;2024-02-26T10:35:30;7.40;99.90
64634;DHT22;51043;52.406;9.690;2024-02-26T10:38:00;7.40;99.90
64634;DHT22;51043;52.406;9.690;2024-02-26T10:40:32;7.50;99.90
64634;DHT22;51043;52.406;9.690;2024-02-26T10:43:02;7.50;99.90
64634;DHT22;51043;52.406;9.690;2024-02-26T10:45:40;7.60;99.90
64634;DHT22;51043;52.406;9.690;2024-02-26T10:48:10;7.50;99.90
64634;DHT22;51043;52.406;9.690;2024-02-26T10:50:40;7.50;99.90
64634;DHT22;51043;52.406;9.690;2024-02-26T10:53:13;7.50;99.90
64634;DHT22;51043;52.406;9.690;2024-02-26T10:55:48;7.60;99.90
64634;DHT22;51043;52.406;9.690;2024-02-26T10:58:17;7.60;99.90
64634;DHT22;51043;52.406;9.690;2024-02-26T11:00:50;7.60;99.90
64634;DHT22;51043;52.406;9.690;2024-02-26T11:03:20;7.70;99.90
64634;DHT22;51043;52.406;9.690;2024-02-26T11:05:51;7.70;99.90
64634;DHT22;51043;52.406;9.690;2024-02-26T11:08:22;7.70;99.90
64634;DHT22;51043;52.406;9.690;2024-02-26T11:10:54;7.70;99.90
64634;DHT22;51043;52.406;9.690;2024-02-26T11:13:26;7.80;99.90
64634;DHT22;51043;52.406;9.690;2024-02-26T11:15:57;7.90;99.90
64634;DHT22;51043;52.406;9.690;2024-02-26T11:18:27;7.90;99.90
64634;DHT22;51043;52.406;9.690;2024-02-26T11:20:58;7.90;99.90
64634;DHT22;51043;52.406;9.690;2024-02-26T11:23:28;8.00;99.90
64634;DHT22;51043;52.406;9.690;2024-02-26T11:25:58;7.90;99.90
64634;DHT22;51043;52.406;9.690;2024-02-26T11:28:28;8.00;99.90
64634;DHT22;51043;52.406;9.690;2024-02-26T11:30:57;8.10;99.90
64634;DHT22;51043;52.406;9.690;2024-02-26T11:33:27;8.20;99.90
64634;DHT22;51043;52.406;9.690;2024-02-26T11:36:00;8.30;99.90
64634;DHT22;51043;52.406;9.690;2024-02-26T11:38:31;8.50;99.90
64634;DHT22;51043;52.406;9.690;2024-02-26T11:41:02;8.70;99.90
64634;DHT22;51043;52.406;9.690;2024-02-26T11:43:49;8.80;99.90
64634;DHT22;51043;52.406;9.690;2024-02-26T11:46:28;8.90;99.90
64634;DHT22;51043;52.406;9.690;2024-02-26T11:49:02;8.90;99.90
64634;DHT22;51043;52.406;9.690;2024-02-26T11:51:34;9.00;99.90
64634;DHT22;51043;52.406;9.690;2024-02-26T11:54:03;9.10;99.90
64634;DHT22;51043;52.406;9.690;2024-02-26T11:56:34;9.20;99.90
64634;DHT22;51043;52.406;9.690;2024-02-26T11:59:09;9.30;99.90
64634;DHT22;51043;52.406;9.690;2024-02-26T12:01:42;9.40;99.90
64634;DHT22;51043;52.406;9.690;2024-02-26T12:04:18;9.40;99.90
64634;DHT22;51043;52.406;9.690;2024-02-26T12:06:56;9.40;99.90
64634;DHT22;51043;52.406;9.690;2024-02-26T12:09:34;9.50;99.90
64634;DHT22;51043;52.406;9.690;2024-02-26T12:12:06;9.60;99.90
64634;DHT22;51043;52.406;9.690;2024-02-26T12:14:38;9.80;99.90
64634;DHT22;51043;52.406;9.690;2024-02-26T12:17:19;9.80;99.90
64634;DHT22;51043;52.406;9.690;2024-02-26T12:19:48;10.00;99.90
64634;DHT22;51043;52.406;9.690;2024-02-26T12:22:19;10.20;99.90
64634;DHT22;51043;52.406;9.690;2024-02-26T12:24:48;10.20;99.90
64634;DHT22;51043;52.406;9.690;2024-02-26T12:27:26;10.20;99.90
64634;DHT22;51043;52.406;9.690;2024-02-26T12:29:54;10.20;99.90
64634;DHT22;51043;52.406;9.690;2024-02-26T12:32:23;10.30;99.90
64634;DHT22;51043;52.406;9.690;2024-02-26T12:34:51;10.60;99.90
64634;DHT22;51043;52.406;9.690;2024-02-26T12:37:21;10.60;99.90
64634;DHT22;51043;52.406;9.690;2024-02-26T12:39:52;10.70;99.90
64634;DHT22;51043;52.406;9.690;2024-02-26T12:42:21;10.60;99.90
64634;DHT22;51043;52.406;9.690;2024-02-26T12:44:49;10.40;99.90
64634;DHT22;51043;52.406;9.690;2024-02-26T12:47:19;10.40;99.90
64634;DHT22;51043;52.406;9.690;2024-02-26T12:49:47;10.50;99.90
64634;DHT22;51043;52.406;9.690;2024-02-26T12:52:18;10.70;99.90
64634;DHT22;51043;52.406;9.690;2024-02-26T12:54:52;10.80;99.90
64634;DHT22;51043;52.406;9.690;2024-02-26T12:57:21;11.00;99.90
64634;DHT22;51043;52.406;9.690;2024-02-26T12:59:51;11.00;99.90
64634;DHT22;51043;52.406;9.690;2024-02-26T13:02:20;10.80;99.90
64634;DHT22;51043;52.406;9.690;2024-02-26T13:04:51;10.60;99.90
64634;DHT22;51043;52.406;9.690;2024-02-26T13:07:21;10.60;99.90
64634;DHT22;51043;52.406;9.690;2024-02-26T13:09:53;10.50;99.90
64634;DHT22;51043;52.406;9.690;2024-02-26T13:12:26;10.50;99.90
64634;DHT22;51043;52.406;9.690;2024-02-26T13:15:00;10.50;99.90
64634;DHT22;51043;52.406;9.690;2024-02-26T13:17:31;10.50;99.90
64634;DHT22;51043;52.406;9.690;2024-02-26T13:20:00;10.50;99.90
64634;DHT22;51043;52.406;9.690;2024-02-26T13:22:28;10.40;99.90
64634;DHT22;51043;52.406;9.690;2024-02-26T13:25:03;10.30;99.90
64634;DHT22;51043;52.406;9.690;2024-02-26T13:27:31;10.30;99.90
64634;DHT22;51043;52.406;9.690;2024-02-26T13:30:05;10.10;99.90
64634;DHT22;51043;52.406;9.690;2024-02-26T13:32:37;10.00;99.90
64634;DHT22;51043;52.406;9.690;2024-02-26T13:35:07;9.90;99.90
64634;DHT22;51043;52.406;9.690;2024-02-26T13:37:36;9.90;99.90
64634;DHT22;51043;52.406;9.690;2024-02-26T13:40:08;9.90;99.90
64634;DHT22;51043;52.406;9.690;2024-02-26T13:42:36;9.90;99.90
64634;DHT22;51043;52.406;9.690;2024-02-26T13:45:08;9.70;99.90
64634;DHT22;51043;52.406;9.690;2024-02-26T13:47:37;9.70;99.90
64634;DHT22;51043;52.406;9.690;2024-02-26T13:50:08;9.70;99.90
64634;DHT22;51043;52.406;9.690;2024-02-26T13:52:37;9.70;99.90
64634;DHT22;51043;52.406;9.690;2024-02-26T13:55:11;9.60;99.90
64634;DHT22;51043;52.406;9.690;2024-02-26T13:57:41;9.50;99.90
64634;DHT22;51043;52.406;9.690;2024-02-26T14:00:13;9.50;99.90
64634;DHT22;51043;52.406;9.690;2024-02-26T14:02:44;9.40;99.90
64634;DHT22;51043;52.406;9.690;2024-02-26T14:05:12;9.40;99.90
64634;DHT22;51043;52.406;9.690;2024-02-26T14:07:41;9.30;99.90
64634;DHT22;51043;52.406;9.690;2024-02-26T14:10:13;9.30;99.90
64634;DHT22;51043;52.406;9.690;2024-02-26T14:12:46;9.30;99.90
64634;DHT22;51043;52.406;9.690;2024-02-26T14:15:18;9.20;99.90
64634;DHT22;51043;52.406;9.690;2024-02-26T14:17:46;9.20;99.90
64634;DHT22;51043;52.406;9.690;2024-02-26T14:20:20;9.20;99.90
64634;DHT22;51043;52.406;9.690;2024-02-26T14:22:55;9.20;99.90
64634;DHT22;51043;52.406;9.690;2024-02-26T14:25:25;9.10;99.90
64634;DHT22;51043;52.406;9.690;2024-02-26T14:27:54;9.10;99.90
64634;DHT22;51043;52.406;9.690;2024-02-26T14:30:22;9.10;99.90
64634;DHT22;51043;52.406;9.690;2024-02-26T14:32:55;9.10;99.90
64634;DHT22;51043;52.406;9.690;2024-02-26T14:35:25;9.10;99.90
64634;DHT22;51043;52.406;9.690;2024-02-26T14:37:53;9.00;99.90
64634;DHT22;51043;52.406;9.690;2024-02-26T14:40:29;9.00;99.90
64634;DHT22;51043;52.406;9.690;2024-02-26T14:42:59;9.00;99.90
64634;DHT22;51043;52.406;9.690;2024-02-26T14:45:27;9.00;99.90
64634;DHT22;51043;52.406;9.690;2024-02-26T14:47:57;9.00;99.90
64634;DHT22;51043;52.406;9.690;2024-02-26T14:50:25;9.10;99.90
64634;DHT22;51043;52.406;9.690;2024-02-26T14:52:55;9.10;99.90
64634;DHT22;51043;52.406;9.690;2024-02-26T14:55:25;9.10;99.90
64634;DHT22;51043;52.406;9.690;2024-02-26T14:57:56;9.10;99.90
64634;DHT22;51043;52.406;9.690;2024-02-26T15:00:24;9.10;99.90
64634;DHT22;51043;52.406;9.690;2024-02-26T15:02:52;9.00;99.90
64634;DHT22;51043;52.406;9.690;2024-02-26T15:05:21;9.00;99.90
64634;DHT22;51043;52.406;9.690;2024-02-26T15:07:51;9.00;99.90
64634;DHT22;51043;52.406;9.690;2024-02-26T15:10:19;9.00;99.90
64634;DHT22;51043;52.406;9.690;2024-02-26T15:12:47;9.00;99.90
64634;DHT22;51043;52.406;9.690;2024-02-26T15:15:20;8.90;99.90
64634;DHT22;51043;52.406;9.690;2024-02-26T15:17:48;9.00;99.90
64634;DHT22;51043;52.406;9.690;2024-02-26T15:20:19;9.00;99.90
64634;DHT22;51043;52.406;9.690;2024-02-26T15:22:48;9.00;99.90
64634;DHT22;51043;52.406;9.690;2024-02-26T15:25:17;9.10;99.90
64634;DHT22;51043;52.406;9.690;2024-02-26T15:27:46;9.10;99.90
64634;DHT22;51043;52.406;9.690;2024-02-26T15:30:15;9.10;99.90
64634;DHT22;51043;52.406;9.690;2024-02-26T15:32:44;9.00;99.90
64634;DHT22;51043;52.406;9.690;2024-02-26T15:35:16;9.00;99.90
64634;DHT22;51043;52.406;9.690;2024-02-26T15:37:44;8.90;99.90
64634;DHT22;51043;52.406;9.690;2024-02-26T15:40:13;8.90;99.90
64634;DHT22;51043;52.406;9.690;2024-02-26T15:42:42;8.90;99.90
64634;DHT22;51043;52.406;9.690;2024-02-26T15:45:11;8.90;99.90
64634;DHT22;51043;52.406;9.690;2024-02-26T15:47:41;8.90;99.90
64634;DHT22;51043;52.406;9.690;2024-02-26T15:50:11;8.90;99.90
64634;DHT22;51043;52.406;9.690;2024-02-26T15:52:41;8.80;99.90
64634;DHT22;51043;52.406;9.690;2024-02-26T15:55:14;8.80;99.90
64634;DHT22;51043;52.406;9.690;2024-02-26T15:57:42;8.80;99.90
64634;DHT22;51043;52.406;9.690;2024-02-26T16:00:11;8.80;99.90